Terminal Aerodrome Forecast
Issued by NWS

Home | Current Version | Previous Version | Graphics & Text | Print | Product List | Glossary On
Versions: 1 2 3 4 5 6 7 8 9 10 11 12 13 14 15 16 17 18 19 20 21 22 23 24 25
000
FTUS43 KMPX 261247 AAA
TAFRWF
TAF AMD
KRWF 261247Z 2613/2712 33005KT P6SM VCTS OVC012CB
      TEMPO 2613/2615 5SM -SHRA BR OVC020
     FM261500 01006KT P6SM OVC050
     FM262200 34007KT P6SM SCT050 SCT250
     FM270300 28003KT P6SM SCT250=

USA.gov is the U.S. government's official web portal to all federal, state and local government web resources and services.